Time;durP1;ratioP1;P1;durP2;ratioP2;P2;SDS_P1;SDS_P2;PMS_P1;PMS_P2;Temp;Humidity;BMP_temperature;BMP_pressure;BME280_temperature;BME280_humidity;BME280_pressure;Samples;Min_cycle;Max_cycle;Signal;HPM_P1;HPM_P2
2022/04/18 00:06:33;;;;;;;;;3.00;3.00;;;;;;;;2;261075455;261075455;-76
2022/04/18 00:16:00;;;;;;;;;120.00;112.00;;;;;;;;2;288084456;288084456;-76
2022/04/18 00:24:17;;;;;;;;;83.50;72.00;;;;;;;;2;261073956;261073956;-76
2022/04/18 00:33:45;;;;;;;;;99.00;91.00;;;;;;;;2;288084185;288084185;-76
2022/04/18 00:42:00;;;;;;;;;103.50;83.00;;;;;;;;2;261076818;261076818;-76
2022/04/18 00:51:29;;;;;;;;;84.00;66.00;;;;;;;;2;288085528;288085528;-76
2022/04/18 00:59:45;;;;;;;;;118.50;109.00;;;;;;;;2;261073794;261073794;-76
2022/04/18 01:09:12;;;;;;;;;90.00;62.00;;;;;;;;2;288083995;288083995;-77
2022/04/18 01:17:28;;;;;;;;;87.50;56.00;;;;;;;;2;261076827;261076827;-76
2022/04/18 01:35:29;;;;;;;;;3.00;3.00;;;;;;;;2;261077523;261077523;-76
2022/04/18 01:44:57;;;;;;;;;52.50;38.50;;;;;;;;2;288086034;288086034;-76
2022/04/18 01:53:13;;;;;;;;;4.00;4.00;;;;;;;;2;261076674;261076674;-76
2022/04/18 02:02:40;;;;;;;;;3.50;3.50;;;;;;;;2;288085089;288085089;-76
2022/04/18 02:10:56;;;;;;;;;2.50;2.50;;;;;;;;2;261079300;261079300;-76
2022/04/18 02:20:23;;;;;;;;;0.00;0.00;;;;;;;;2;288084330;288084330;-76
2022/04/18 02:28:40;;;;;;;;;0.50;0.50;;;;;;;;2;261077808;261077808;-76
2022/04/18 02:38:08;;;;;;;;;0.00;0.00;;;;;;;;2;288084844;288084844;-76
2022/04/18 02:46:23;;;;;;;;;3.50;3.50;;;;;;;;2;261077938;261077938;-76
2022/04/18 02:55:51;;;;;;;;;0.00;0.00;;;;;;;;2;288083513;288083513;-76
2022/04/18 03:04:06;;;;;;;;;5.00;5.00;;;;;;;;2;261075959;261075959;-76
2022/04/18 03:13:35;;;;;;;;;2.50;2.50;;;;;;;;2;288084018;288084018;-76
2022/04/18 03:21:50;;;;;;;;;4.00;4.00;;;;;;;;2;261078373;261078373;-76
2022/04/18 03:31:18;;;;;;;;;2.50;2.50;;;;;;;;2;288085892;288085892;-76
2022/04/18 03:39:52;;;;;;;;;5.50;5.50;;;;;;;;2;261079637;261079637;-76
2022/04/18 03:49:20;;;;;;;;;6.00;6.00;;;;;;;;2;288087533;288087533;-77
2022/04/18 03:57:35;;;;;;;;;2.50;2.50;;;;;;;;2;261077951;261077951;-77
2022/04/18 04:07:04;;;;;;;;;3.50;3.50;;;;;;;;2;288082969;288082969;-77
2022/04/18 04:15:20;;;;;;;;;4.50;4.50;;;;;;;;2;261076280;261076280;-77
2022/04/18 04:24:47;;;;;;;;;1.50;1.50;;;;;;;;2;288083206;288083206;-76
2022/04/18 04:33:03;;;;;;;;;1.00;1.00;;;;;;;;2;261077128;261077128;-76
2022/04/18 04:42:30;;;;;;;;;1.00;1.00;;;;;;;;2;288083435;288083435;-76
2022/04/18 04:50:46;;;;;;;;;4.50;4.50;;;;;;;;2;261078735;261078735;-77
2022/04/18 05:00:14;;;;;;;;;6.50;5.00;;;;;;;;2;288084534;288084534;-77
2022/04/18 05:08:29;;;;;;;;;5.00;5.00;;;;;;;;2;261076285;261076285;-77
2022/04/18 05:17:57;;;;;;;;;4.50;4.50;;;;;;;;2;288082495;288082495;-77
2022/04/18 05:26:12;;;;;;;;;3.50;3.50;;;;;;;;2;261076208;261076208;-76
2022/04/18 05:35:40;;;;;;;;;2.50;2.50;;;;;;;;2;288084869;288084869;-76
2022/04/18 05:43:55;;;;;;;;;15.00;2.00;;;;;;;;2;261079975;261079975;-76
2022/04/18 05:53:26;;;;;;;;;2.50;2.50;;;;;;;;2;288085565;288085565;-76
2022/04/18 06:01:42;;;;;;;;;1.50;1.50;;;;;;;;2;261079117;261079117;-76
2022/04/18 06:11:09;;;;;;;;;5.50;5.50;;;;;;;;2;288085471;288085471;-75
2022/04/18 06:19:25;;;;;;;;;5.50;5.50;;;;;;;;2;261075969;261075969;-78
2022/04/18 06:28:52;;;;;;;;;2.00;2.00;;;;;;;;2;288084906;288084906;-80
2022/04/18 06:37:08;;;;;;;;;3.50;3.50;;;;;;;;2;261076981;261076981;-79
2022/04/18 06:46:36;;;;;;;;;16.00;7.50;;;;;;;;2;288085143;288085143;-80
2022/04/18 06:54:51;;;;;;;;;3.50;3.50;;;;;;;;2;261075894;261075894;-80
2022/04/18 07:13:15;;;;;;;;;15.50;4.50;;;;;;;;2;261075994;261075994;-80
2022/04/18 07:22:43;;;;;;;;;0.00;0.00;;;;;;;;2;288086239;288086239;-80
2022/04/18 07:30:58;;;;;;;;;5.00;1.00;;;;;;;;2;261079807;261079807;-85
2022/04/18 07:40:26;;;;;;;;;0.00;0.00;;;;;;;;2;288084407;288084407;-80
2022/04/18 07:48:42;;;;;;;;;4.00;4.00;;;;;;;;2;261079530;261079530;-80
2022/04/18 07:58:09;;;;;;;;;0.00;0.00;;;;;;;;2;288084408;288084408;-79
2022/04/18 08:06:25;;;;;;;;;2.00;2.00;;;;;;;;2;261076741;261076741;-81
2022/04/18 08:15:53;;;;;;;;;0.00;0.00;;;;;;;;2;288085919;288085919;-79
2022/04/18 08:24:09;;;;;;;;;4.00;4.00;;;;;;;;2;261077402;261077402;-82
2022/04/18 08:33:36;;;;;;;;;7.50;7.50;;;;;;;;2;288084189;288084189;-79
2022/04/18 08:41:56;;;;;;;;;6.00;6.00;;;;;;;;2;261073568;261073568;-79
2022/04/18 08:59:59;;;;;;;;;6.50;6.50;;;;;;;;2;261078085;261078085;-78
2022/04/18 09:09:27;;;;;;;;;7.00;7.00;;;;;;;;2;288085250;288085250;-78
2022/04/18 09:17:43;;;;;;;;;8.00;8.00;;;;;;;;2;261078002;261078002;-88
2022/04/18 09:27:27;;;;;;;;;6.50;6.50;;;;;;;;2;288086410;288086410;-92
2022/04/18 09:35:42;;;;;;;;;10.00;10.00;;;;;;;;2;261075520;261075520;-81
2022/04/18 09:45:10;;;;;;;;;70.00;65.50;;;;;;;;2;288084101;288084101;-87
2022/04/18 09:53:26;;;;;;;;;79.00;61.50;;;;;;;;2;261078470;261078470;-83
2022/04/18 10:02:53;;;;;;;;;9.00;9.00;;;;;;;;2;288085618;288085618;-84
2022/04/18 10:11:09;;;;;;;;;6.00;6.00;;;;;;;;2;261080482;261080482;-85
2022/04/18 10:20:42;;;;;;;;;6.50;6.50;;;;;;;;2;288082865;288082865;-81
2022/04/18 10:29:01;;;;;;;;;10.00;10.00;;;;;;;;2;261077819;261077819;-82
2022/04/18 10:38:31;;;;;;;;;7.50;7.50;;;;;;;;2;288083753;288083753;-80
2022/04/18 10:46:52;;;;;;;;;11.00;11.00;;;;;;;;2;261076905;261076905;-86
2022/04/18 10:56:21;;;;;;;;;13.50;13.50;;;;;;;;2;288082336;288082336;-80
2022/04/18 11:04:39;;;;;;;;;7.00;7.00;;;;;;;;2;261076203;261076203;-86
2022/04/18 11:14:14;;;;;;;;;84.00;84.00;;;;;;;;2;288086314;288086314;-89
2022/04/18 11:22:30;;;;;;;;;77.00;70.00;;;;;;;;2;261073826;261073826;-90
2022/04/18 11:31:58;;;;;;;;;68.50;56.00;;;;;;;;2;288084102;288084102;-87
2022/04/18 11:40:14;;;;;;;;;84.00;84.00;;;;;;;;2;261078318;261078318;-87
2022/04/18 11:49:45;;;;;;;;;106.50;101.00;;;;;;;;2;288084322;288084322;-89
2022/04/18 11:58:00;;;;;;;;;82.00;76.00;;;;;;;;2;261074541;261074541;-89
2022/04/18 12:07:28;;;;;;;;;;;;;;;;;;2;288085365;288085365;-83
2022/04/18 12:15:43;;;;;;;;;77.00;71.50;;;;;;;;2;261076037;261076037;-83
2022/04/18 12:25:17;;;;;;;;;71.50;66.00;;;;;;;;2;288081693;288081693;-81
2022/04/18 12:33:33;;;;;;;;;101.00;101.00;;;;;;;;2;261080354;261080354;-83
2022/04/18 12:43:05;;;;;;;;;123.50;117.50;;;;;;;;2;288083812;288083812;-86
2022/04/18 12:51:43;;;;;;;;;123.50;116.00;;;;;;;;2;261077750;261077750;-86
2022/04/18 13:01:20;;;;;;;;;84.50;77.50;;;;;;;;2;288086900;288086900;-87
2022/04/18 13:09:35;;;;;;;;;12.50;12.50;;;;;;;;2;261078410;261078410;-86
2022/04/18 13:19:04;;;;;;;;;36.00;24.00;;;;;;;;2;288083072;288083072;-85
2022/04/18 13:27:26;;;;;;;;;23.50;22.00;;;;;;;;2;261075073;261075073;-83
2022/04/18 13:36:54;;;;;;;;;22.00;22.00;;;;;;;;2;288085384;288085384;-86
2022/04/18 13:45:11;;;;;;;;;24.50;24.50;;;;;;;;2;261075206;261075206;-96
2022/04/18 13:54:40;;;;;;;;;22.50;22.50;;;;;;;;2;288085907;288085907;-88
2022/04/18 14:02:56;;;;;;;;;18.00;18.00;;;;;;;;2;261077479;261077479;-91
2022/04/18 14:12:24;;;;;;;;;50.00;26.00;;;;;;;;2;288085251;288085251;-87
2022/04/18 14:20:39;;;;;;;;;35.50;32.50;;;;;;;;2;261077115;261077115;-87
2022/04/18 14:30:07;;;;;;;;;36.00;33.00;;;;;;;;2;288084662;288084662;-87
2022/04/18 14:38:22;;;;;;;;;22.50;22.50;;;;;;;;2;261077720;261077720;-88
2022/04/18 14:47:51;;;;;;;;;29.00;21.00;;;;;;;;2;288083518;288083518;-87
2022/04/18 14:56:06;;;;;;;;;22.50;22.50;;;;;;;;2;261077762;261077762;-86
2022/04/18 15:05:34;;;;;;;;;20.00;20.00;;;;;;;;2;288086229;288086229;-86
2022/04/18 15:13:49;;;;;;;;;11.00;11.00;;;;;;;;2;261079641;261079641;-84
2022/04/18 15:23:17;;;;;;;;;12.00;12.00;;;;;;;;2;288084877;288084877;-85
2022/04/18 15:41:18;;;;;;;;;84.00;77.00;;;;;;;;2;288085289;288085289;-83
2022/04/18 15:49:34;;;;;;;;;16.50;16.50;;;;;;;;2;261080180;261080180;-83
2022/04/18 15:59:01;;;;;;;;;18.00;18.00;;;;;;;;2;288084206;288084206;-83
2022/04/18 16:07:17;;;;;;;;;15.00;15.00;;;;;;;;2;261080413;261080413;-82
2022/04/18 16:16:45;;;;;;;;;9.50;9.50;;;;;;;;2;288081178;288081178;-75
2022/04/18 16:25:00;;;;;;;;;11.00;11.00;;;;;;;;2;261079050;261079050;-77
2022/04/18 16:34:28;;;;;;;;;2.00;2.00;;;;;;;;2;288084399;288084399;-77
2022/04/18 16:52:29;;;;;;;;;4.00;4.00;;;;;;;;2;288083113;288083113;-77
2022/04/18 17:00:45;;;;;;;;;1.00;1.00;;;;;;;;2;261077757;261077757;-77
2022/04/18 17:10:15;;;;;;;;;2.00;2.00;;;;;;;;2;288084170;288084170;-77
2022/04/18 17:18:31;;;;;;;;;2.00;2.00;;;;;;;;2;261077649;261077649;-77
2022/04/18 17:27:58;;;;;;;;;1.50;1.50;;;;;;;;2;288084347;288084347;-76
2022/04/18 17:36:14;;;;;;;;;17.50;17.50;;;;;;;;2;261078357;261078357;-76
2022/04/18 17:45:41;;;;;;;;;8.00;8.00;;;;;;;;2;288084424;288084424;-77
2022/04/18 18:03:43;;;;;;;;;3.50;3.50;;;;;;;;2;288083268;288083268;-76
2022/04/18 18:11:58;;;;;;;;;4.50;3.00;;;;;;;;2;261078944;261078944;-75
2022/04/18 18:21:26;;;;;;;;;5.00;5.00;;;;;;;;2;288084502;288084502;-75
2022/04/18 18:29:41;;;;;;;;;3.00;3.00;;;;;;;;2;261077112;261077112;-75
2022/04/18 18:39:09;;;;;;;;;4.50;4.50;;;;;;;;2;288083179;288083179;-75
2022/04/18 18:47:24;;;;;;;;;1.00;1.00;;;;;;;;2;261075489;261075489;-75
2022/04/18 18:56:52;;;;;;;;;3.50;3.50;;;;;;;;2;288083021;288083021;-75
2022/04/18 19:05:08;;;;;;;;;2.50;2.50;;;;;;;;2;261075847;261075847;-76
2022/04/18 19:14:35;;;;;;;;;18.00;6.00;;;;;;;;2;288084619;288084619;-75
2022/04/18 19:33:18;;;;;;;;;;;;;;;;;;;;;
2022/04/18 19:41:34;;;;;;;;;23.00;18.50;;;;;;;;2;261108321;261108321;-86
2022/04/18 19:51:40;;;;;;;;;5.50;5.50;;;;;;;;2;288083353;288083353;-88
2022/04/18 20:00:09;;;;;;;;;8.00;8.00;;;;;;;;2;261080053;261080053;-88
2022/04/18 20:10:08;;;;;;;;;15.50;15.50;;;;;;;;2;288089153;288089153;-88
2022/04/18 20:18:24;;;;;;;;;7.50;7.50;;;;;;;;2;261078482;261078482;-85
2022/04/18 20:36:49;;;;;;;;;14.50;14.50;;;;;;;;2;261079427;261079427;-84
2022/04/18 20:46:52;;;;;;;;;12.00;7.50;;;;;;;;2;288083866;288083866;-84
2022/04/18 21:05:25;;;;;;;;;10.00;10.00;;;;;;;;2;288084330;288084330;-83
2022/04/18 21:13:45;;;;;;;;;14.00;8.50;;;;;;;;2;261078530;261078530;-83
2022/04/18 22:39:28;;;;;;;;;7.50;3.50;;;;;;;;2;288083836;288083836;-83
2022/04/18 22:47:44;;;;;;;;;20.00;15.00;;;;;;;;2;261076743;261076743;-82
2022/04/18 22:57:12;;;;;;;;;5.50;5.50;;;;;;;;2;288081103;288081103;-81
2022/04/18 23:15:13;;;;;;;;;16.50;4.50;;;;;;;;2;288083480;288083480;-82
2022/04/18 23:23:29;;;;;;;;;11.00;8.50;;;;;;;;2;261076621;261076621;-82
2022/04/18 23:32:57;;;;;;;;;4.00;4.00;;;;;;;;2;288082741;288082741;-81
2022/04/18 23:50:59;;;;;;;;;3.50;3.50;;;;;;;;2;288083061;288083061;-81
2022/04/18 23:59:16;;;;;;;;;6.00;4.50;;;;;;;;2;261074997;261074997;-81
